Riverside, Connecticut
Current Conditions -  °F | °C
As of 10:56 AM on Friday 21 Nov 2014 (Local Time) from KHPN Reporting Station
Few Clouds Few Clouds  
Wind Chill: 23°   Ceiling: Unl
Heat Index: 32°   Visibility: 10mi
Dew Point: 11°   Wind: 13mph
Humidity: 42%   Direction: 300°WNW
Pressure: 30.24"   Gusts: 24mph
Location:  41.03°N, 73.57°W
Report Text: KHPN 211556Z 30011G21KT 10SM FEW040 00/M12 A3024 RMK AO2 PK WND 32027/1543 SLP249 T00001117
Loading
Personal Weather Stations






























Interactive Weather Map New forecast layout! Learn more

10-Day Weather Forecast

Advertisements
Track Severe Weather on mobile